sensor_id;sensor_type;location;lat;lon;timestamp;P1;durP1;ratioP1;P2;durP2;ratioP2
16127;SDS011;8168;49.036;7.690;2022-12-07T00:02:07;12.77;;;6.43;;
16127;SDS011;8168;49.036;7.690;2022-12-07T00:04:38;11.93;;;6.67;;
16127;SDS011;8168;49.036;7.690;2022-12-07T00:07:08;10.80;;;6.40;;
16127;SDS011;8168;49.036;7.690;2022-12-07T00:09:39;12.33;;;7.47;;
16127;SDS011;8168;49.036;7.690;2022-12-07T00:12:11;12.87;;;6.83;;
16127;SDS011;8168;49.036;7.690;2022-12-07T00:14:42;11.27;;;7.03;;
16127;SDS011;8168;49.036;7.690;2022-12-07T00:17:13;10.33;;;6.60;;
16127;SDS011;8168;49.036;7.690;2022-12-07T00:19:43;9.90;;;6.17;;
16127;SDS011;8168;49.036;7.690;2022-12-07T00:22:14;9.37;;;5.53;;
16127;SDS011;8168;49.036;7.690;2022-12-07T00:24:44;9.77;;;5.63;;
16127;SDS011;8168;49.036;7.690;2022-12-07T00:27:15;7.67;;;6.00;;
16127;SDS011;8168;49.036;7.690;2022-12-07T00:29:46;11.40;;;6.97;;
16127;SDS011;8168;49.036;7.690;2022-12-07T00:32:16;6.67;;;4.93;;
16127;SDS011;8168;49.036;7.690;2022-12-07T00:34:47;10.87;;;6.07;;
16127;SDS011;8168;49.036;7.690;2022-12-07T00:37:18;11.80;;;6.63;;
16127;SDS011;8168;49.036;7.690;2022-12-07T00:39:49;11.37;;;7.00;;
16127;SDS011;8168;49.036;7.690;2022-12-07T00:42:20;14.73;;;7.60;;
16127;SDS011;8168;49.036;7.690;2022-12-07T00:44:51;12.37;;;7.53;;
16127;SDS011;8168;49.036;7.690;2022-12-07T00:47:22;10.43;;;6.60;;
16127;SDS011;8168;49.036;7.690;2022-12-07T00:49:53;11.10;;;6.90;;
16127;SDS011;8168;49.036;7.690;2022-12-07T00:52:23;12.90;;;6.70;;
16127;SDS011;8168;49.036;7.690;2022-12-07T00:54:54;10.53;;;6.43;;
16127;SDS011;8168;49.036;7.690;2022-12-07T00:57:25;8.13;;;5.60;;
16127;SDS011;8168;49.036;7.690;2022-12-07T00:59:56;8.70;;;5.67;;
16127;SDS011;8168;49.036;7.690;2022-12-07T01:02:27;10.63;;;5.70;;
16127;SDS011;8168;49.036;7.690;2022-12-07T01:04:58;12.67;;;6.07;;
16127;SDS011;8168;49.036;7.690;2022-12-07T01:07:29;10.50;;;6.23;;
16127;SDS011;8168;49.036;7.690;2022-12-07T01:10:00;10.50;;;6.20;;
16127;SDS011;8168;49.036;7.690;2022-12-07T01:12:31;9.07;;;6.37;;
16127;SDS011;8168;49.036;7.690;2022-12-07T01:15:02;10.07;;;6.40;;
16127;SDS011;8168;49.036;7.690;2022-12-07T01:17:33;10.17;;;5.97;;
16127;SDS011;8168;49.036;7.690;2022-12-07T01:20:04;9.57;;;5.60;;
16127;SDS011;8168;49.036;7.690;2022-12-07T01:22:37;10.13;;;6.43;;
16127;SDS011;8168;49.036;7.690;2022-12-07T01:25:08;11.17;;;6.67;;
16127;SDS011;8168;49.036;7.690;2022-12-07T01:27:40;11.67;;;6.53;;
16127;SDS011;8168;49.036;7.690;2022-12-07T01:30:11;9.80;;;6.13;;
16127;SDS011;8168;49.036;7.690;2022-12-07T01:32:42;14.03;;;7.17;;
16127;SDS011;8168;49.036;7.690;2022-12-07T01:35:13;10.13;;;6.37;;
16127;SDS011;8168;49.036;7.690;2022-12-07T01:37:44;11.33;;;7.13;;
16127;SDS011;8168;49.036;7.690;2022-12-07T01:40:14;13.37;;;7.43;;
16127;SDS011;8168;49.036;7.690;2022-12-07T01:42:45;13.97;;;7.67;;
16127;SDS011;8168;49.036;7.690;2022-12-07T01:48:09;11.03;;;6.80;;
16127;SDS011;8168;49.036;7.690;2022-12-07T01:50:43;10.07;;;6.43;;
16127;SDS011;8168;49.036;7.690;2022-12-07T01:53:17;9.67;;;6.17;;
16127;SDS011;8168;49.036;7.690;2022-12-07T01:55:49;8.47;;;5.67;;
16127;SDS011;8168;49.036;7.690;2022-12-07T01:58:23;9.73;;;5.93;;
16127;SDS011;8168;49.036;7.690;2022-12-07T02:00:55;13.43;;;6.73;;
16127;SDS011;8168;49.036;7.690;2022-12-07T02:03:27;10.57;;;6.70;;
16127;SDS011;8168;49.036;7.690;2022-12-07T02:06:05;9.33;;;6.03;;
16127;SDS011;8168;49.036;7.690;2022-12-07T02:08:37;12.53;;;7.83;;
16127;SDS011;8168;49.036;7.690;2022-12-07T02:11:08;10.70;;;7.30;;
16127;SDS011;8168;49.036;7.690;2022-12-07T02:13:40;13.27;;;7.37;;
16127;SDS011;8168;49.036;7.690;2022-12-07T02:18:52;13.03;;;7.07;;
16127;SDS011;8168;49.036;7.690;2022-12-07T02:30:18;9.23;;;5.97;;
16127;SDS011;8168;49.036;7.690;2022-12-07T02:32:58;12.20;;;7.40;;
16127;SDS011;8168;49.036;7.690;2022-12-07T02:35:39;12.07;;;6.67;;
16127;SDS011;8168;49.036;7.690;2022-12-07T02:38:21;11.17;;;6.80;;
16127;SDS011;8168;49.036;7.690;2022-12-07T02:41:12;9.83;;;6.20;;
16127;SDS011;8168;49.036;7.690;2022-12-07T02:43:59;11.47;;;5.67;;
16127;SDS011;8168;49.036;7.690;2022-12-07T02:46:33;10.80;;;5.77;;
16127;SDS011;8168;49.036;7.690;2022-12-07T02:49:08;10.50;;;6.73;;
16127;SDS011;8168;49.036;7.690;2022-12-07T02:51:41;11.37;;;5.93;;
16127;SDS011;8168;49.036;7.690;2022-12-07T02:54:13;9.57;;;5.80;;
16127;SDS011;8168;49.036;7.690;2022-12-07T02:56:48;9.63;;;6.17;;
16127;SDS011;8168;49.036;7.690;2022-12-07T03:02:16;8.10;;;5.60;;
16127;SDS011;8168;49.036;7.690;2022-12-07T03:07:34;9.13;;;5.73;;
16127;SDS011;8168;49.036;7.690;2022-12-07T03:19:08;9.57;;;5.47;;
16127;SDS011;8168;49.036;7.690;2022-12-07T03:21:46;10.10;;;5.57;;
16127;SDS011;8168;49.036;7.690;2022-12-07T03:24:22;9.87;;;6.00;;
16127;SDS011;8168;49.036;7.690;2022-12-07T03:27:04;10.30;;;6.10;;
16127;SDS011;8168;49.036;7.690;2022-12-07T03:29:49;11.63;;;6.57;;
16127;SDS011;8168;49.036;7.690;2022-12-07T03:32:45;10.87;;;5.70;;
16127;SDS011;8168;49.036;7.690;2022-12-07T03:35:48;13.33;;;6.17;;
16127;SDS011;8168;49.036;7.690;2022-12-07T03:38:33;10.00;;;5.33;;
16127;SDS011;8168;49.036;7.690;2022-12-07T03:41:14;7.90;;;5.40;;
16127;SDS011;8168;49.036;7.690;2022-12-07T03:43:54;9.87;;;5.47;;
16127;SDS011;8168;49.036;7.690;2022-12-07T03:51:43;10.63;;;5.60;;
16127;SDS011;8168;49.036;7.690;2022-12-07T03:54:24;9.30;;;5.60;;
16127;SDS011;8168;49.036;7.690;2022-12-07T03:57:00;11.73;;;6.47;;
16127;SDS011;8168;49.036;7.690;2022-12-07T03:59:32;8.07;;;5.13;;
16127;SDS011;8168;49.036;7.690;2022-12-07T04:02:04;10.27;;;5.93;;
16127;SDS011;8168;49.036;7.690;2022-12-07T04:04:36;10.47;;;5.37;;
16127;SDS011;8168;49.036;7.690;2022-12-07T04:07:07;9.87;;;5.50;;
16127;SDS011;8168;49.036;7.690;2022-12-07T04:09:38;10.33;;;6.17;;
16127;SDS011;8168;49.036;7.690;2022-12-07T04:12:08;9.30;;;5.63;;
16127;SDS011;8168;49.036;7.690;2022-12-07T04:14:39;10.17;;;5.37;;
16127;SDS011;8168;49.036;7.690;2022-12-07T04:17:10;6.53;;;4.80;;
16127;SDS011;8168;49.036;7.690;2022-12-07T04:19:41;9.50;;;5.97;;
16127;SDS011;8168;49.036;7.690;2022-12-07T04:22:12;9.97;;;5.57;;
16127;SDS011;8168;49.036;7.690;2022-12-07T04:24:42;10.47;;;5.63;;
16127;SDS011;8168;49.036;7.690;2022-12-07T04:27:13;9.57;;;4.97;;
16127;SDS011;8168;49.036;7.690;2022-12-07T04:29:44;7.73;;;4.90;;
16127;SDS011;8168;49.036;7.690;2022-12-07T04:32:15;6.93;;;5.33;;
16127;SDS011;8168;49.036;7.690;2022-12-07T04:34:46;10.47;;;6.17;;
16127;SDS011;8168;49.036;7.690;2022-12-07T04:37:17;10.13;;;5.53;;
16127;SDS011;8168;49.036;7.690;2022-12-07T04:39:47;9.80;;;5.33;;
16127;SDS011;8168;49.036;7.690;2022-12-07T04:42:18;11.20;;;5.03;;
16127;SDS011;8168;49.036;7.690;2022-12-07T04:44:49;11.73;;;5.90;;
16127;SDS011;8168;49.036;7.690;2022-12-07T04:47:21;7.93;;;5.03;;
16127;SDS011;8168;49.036;7.690;2022-12-07T04:49:51;8.17;;;5.10;;
16127;SDS011;8168;49.036;7.690;2022-12-07T04:52:22;8.17;;;5.30;;
16127;SDS011;8168;49.036;7.690;2022-12-07T04:54:53;7.50;;;4.60;;
16127;SDS011;8168;49.036;7.690;2022-12-07T04:57:24;11.30;;;5.37;;
16127;SDS011;8168;49.036;7.690;2022-12-07T04:59:55;9.83;;;5.30;;
16127;SDS011;8168;49.036;7.690;2022-12-07T05:02:25;7.53;;;5.10;;
16127;SDS011;8168;49.036;7.690;2022-12-07T05:04:56;8.17;;;5.80;;
16127;SDS011;8168;49.036;7.690;2022-12-07T05:07:27;7.77;;;5.43;;
16127;SDS011;8168;49.036;7.690;2022-12-07T05:09:58;7.80;;;4.83;;
16127;SDS011;8168;49.036;7.690;2022-12-07T05:12:29;8.70;;;5.57;;
16127;SDS011;8168;49.036;7.690;2022-12-07T05:15:00;6.67;;;4.73;;
16127;SDS011;8168;49.036;7.690;2022-12-07T05:17:31;9.53;;;5.37;;
16127;SDS011;8168;49.036;7.690;2022-12-07T05:20:02;8.40;;;5.37;;
16127;SDS011;8168;49.036;7.690;2022-12-07T05:22:34;9.27;;;6.00;;
16127;SDS011;8168;49.036;7.690;2022-12-07T05:25:05;7.97;;;5.40;;
16127;SDS011;8168;49.036;7.690;2022-12-07T05:27:36;9.40;;;5.03;;
16127;SDS011;8168;49.036;7.690;2022-12-07T05:30:07;8.27;;;5.33;;
16127;SDS011;8168;49.036;7.690;2022-12-07T05:32:38;10.13;;;5.27;;
16127;SDS011;8168;49.036;7.690;2022-12-07T05:35:09;9.80;;;5.27;;
16127;SDS011;8168;49.036;7.690;2022-12-07T05:37:40;8.17;;;4.67;;
16127;SDS011;8168;49.036;7.690;2022-12-07T05:40:12;8.20;;;4.87;;
16127;SDS011;8168;49.036;7.690;2022-12-07T05:42:43;11.87;;;5.67;;
16127;SDS011;8168;49.036;7.690;2022-12-07T05:45:14;7.07;;;4.40;;
16127;SDS011;8168;49.036;7.690;2022-12-07T05:47:45;10.03;;;5.50;;
16127;SDS011;8168;49.036;7.690;2022-12-07T05:50:16;7.57;;;5.17;;
16127;SDS011;8168;49.036;7.690;2022-12-07T05:52:46;7.57;;;4.93;;
16127;SDS011;8168;49.036;7.690;2022-12-07T05:55:17;8.13;;;5.20;;
16127;SDS011;8168;49.036;7.690;2022-12-07T05:57:48;9.30;;;5.60;;
16127;SDS011;8168;49.036;7.690;2022-12-07T06:00:37;7.87;;;4.27;;
16127;SDS011;8168;49.036;7.690;2022-12-07T06:03:08;8.27;;;4.47;;
16127;SDS011;8168;49.036;7.690;2022-12-07T06:05:39;7.37;;;5.60;;
16127;SDS011;8168;49.036;7.690;2022-12-07T06:08:10;8.63;;;4.83;;
16127;SDS011;8168;49.036;7.690;2022-12-07T06:10:41;6.53;;;4.90;;
16127;SDS011;8168;49.036;7.690;2022-12-07T06:13:11;8.87;;;5.50;;
16127;SDS011;8168;49.036;7.690;2022-12-07T06:15:42;7.70;;;5.03;;
16127;SDS011;8168;49.036;7.690;2022-12-07T06:18:14;9.07;;;5.47;;
16127;SDS011;8168;49.036;7.690;2022-12-07T06:20:44;8.30;;;5.57;;
16127;SDS011;8168;49.036;7.690;2022-12-07T06:23:15;9.50;;;4.73;;
16127;SDS011;8168;49.036;7.690;2022-12-07T06:25:46;8.83;;;5.67;;
16127;SDS011;8168;49.036;7.690;2022-12-07T06:28:17;11.13;;;4.60;;
16127;SDS011;8168;49.036;7.690;2022-12-07T06:30:56;8.97;;;5.40;;
16127;SDS011;8168;49.036;7.690;2022-12-07T06:33:27;8.37;;;5.83;;
16127;SDS011;8168;49.036;7.690;2022-12-07T06:35:59;8.43;;;5.23;;
16127;SDS011;8168;49.036;7.690;2022-12-07T06:38:29;9.80;;;6.30;;
16127;SDS011;8168;49.036;7.690;2022-12-07T06:41:00;10.57;;;6.50;;
16127;SDS011;8168;49.036;7.690;2022-12-07T06:43:31;7.53;;;4.73;;
16127;SDS011;8168;49.036;7.690;2022-12-07T06:46:02;12.80;;;5.43;;
16127;SDS011;8168;49.036;7.690;2022-12-07T06:48:33;7.83;;;4.67;;
16127;SDS011;8168;49.036;7.690;2022-12-07T06:51:04;6.90;;;5.03;;
16127;SDS011;8168;49.036;7.690;2022-12-07T06:53:36;9.13;;;4.90;;
16127;SDS011;8168;49.036;7.690;2022-12-07T06:56:07;13.33;;;5.33;;
16127;SDS011;8168;49.036;7.690;2022-12-07T06:58:38;8.33;;;5.17;;
16127;SDS011;8168;49.036;7.690;2022-12-07T07:01:11;7.87;;;5.33;;
16127;SDS011;8168;49.036;7.690;2022-12-07T07:03:44;10.20;;;5.37;;
16127;SDS011;8168;49.036;7.690;2022-12-07T07:06:15;10.03;;;5.60;;
16127;SDS011;8168;49.036;7.690;2022-12-07T07:08:46;8.13;;;5.50;;
16127;SDS011;8168;49.036;7.690;2022-12-07T07:11:17;9.30;;;6.03;;
16127;SDS011;8168;49.036;7.690;2022-12-07T07:13:48;10.43;;;5.97;;
16127;SDS011;8168;49.036;7.690;2022-12-07T07:16:19;8.70;;;6.03;;
16127;SDS011;8168;49.036;7.690;2022-12-07T07:18:50;8.40;;;5.93;;
16127;SDS011;8168;49.036;7.690;2022-12-07T07:21:20;20.37;;;6.47;;
16127;SDS011;8168;49.036;7.690;2022-12-07T07:23:51;10.27;;;5.97;;
16127;SDS011;8168;49.036;7.690;2022-12-07T07:26:22;13.03;;;7.40;;
16127;SDS011;8168;49.036;7.690;2022-12-07T07:28:53;15.43;;;9.27;;
16127;SDS011;8168;49.036;7.690;2022-12-07T07:31:24;12.53;;;7.43;;
16127;SDS011;8168;49.036;7.690;2022-12-07T07:33:55;14.80;;;7.00;;
16127;SDS011;8168;49.036;7.690;2022-12-07T07:36:26;12.27;;;6.87;;
16127;SDS011;8168;49.036;7.690;2022-12-07T07:38:57;12.73;;;6.40;;
16127;SDS011;8168;49.036;7.690;2022-12-07T07:41:28;10.00;;;6.30;;
16127;SDS011;8168;49.036;7.690;2022-12-07T07:43:59;8.90;;;5.40;;
16127;SDS011;8168;49.036;7.690;2022-12-07T07:46:30;9.40;;;5.67;;
16127;SDS011;8168;49.036;7.690;2022-12-07T07:49:03;11.13;;;6.20;;
16127;SDS011;8168;49.036;7.690;2022-12-07T07:51:33;10.90;;;5.80;;
16127;SDS011;8168;49.036;7.690;2022-12-07T07:54:04;8.73;;;6.03;;
16127;SDS011;8168;49.036;7.690;2022-12-07T07:56:35;9.83;;;6.17;;
16127;SDS011;8168;49.036;7.690;2022-12-07T07:59:06;9.27;;;5.90;;
16127;SDS011;8168;49.036;7.690;2022-12-07T08:01:36;11.30;;;6.93;;
16127;SDS011;8168;49.036;7.690;2022-12-07T08:04:07;9.47;;;6.27;;
16127;SDS011;8168;49.036;7.690;2022-12-07T08:06:38;8.77;;;5.43;;
16127;SDS011;8168;49.036;7.690;2022-12-07T08:09:11;12.77;;;6.33;;
16127;SDS011;8168;49.036;7.690;2022-12-07T08:11:42;11.83;;;6.17;;
16127;SDS011;8168;49.036;7.690;2022-12-07T08:14:13;12.30;;;6.77;;
16127;SDS011;8168;49.036;7.690;2022-12-07T08:16:43;11.57;;;6.20;;
16127;SDS011;8168;49.036;7.690;2022-12-07T08:19:14;10.10;;;6.37;;
16127;SDS011;8168;49.036;7.690;2022-12-07T08:21:45;11.73;;;6.33;;
16127;SDS011;8168;49.036;7.690;2022-12-07T08:24:16;10.13;;;6.00;;
16127;SDS011;8168;49.036;7.690;2022-12-07T08:26:47;10.50;;;6.20;;
16127;SDS011;8168;49.036;7.690;2022-12-07T08:29:19;13.43;;;6.70;;
16127;SDS011;8168;49.036;7.690;2022-12-07T08:31:50;10.80;;;6.80;;
16127;SDS011;8168;49.036;7.690;2022-12-07T08:34:21;14.97;;;7.83;;
16127;SDS011;8168;49.036;7.690;2022-12-07T08:36:52;14.20;;;7.60;;
16127;SDS011;8168;49.036;7.690;2022-12-07T08:39:23;13.60;;;7.37;;
16127;SDS011;8168;49.036;7.690;2022-12-07T08:41:54;16.20;;;7.90;;
16127;SDS011;8168;49.036;7.690;2022-12-07T08:44:25;11.83;;;7.40;;
16127;SDS011;8168;49.036;7.690;2022-12-07T08:46:58;16.67;;;8.43;;
16127;SDS011;8168;49.036;7.690;2022-12-07T08:49:39;17.87;;;8.17;;
16127;SDS011;8168;49.036;7.690;2022-12-07T08:52:13;16.03;;;8.23;;
16127;SDS011;8168;49.036;7.690;2022-12-07T08:54:44;14.43;;;6.67;;
16127;SDS011;8168;49.036;7.690;2022-12-07T08:57:15;14.40;;;6.57;;
16127;SDS011;8168;49.036;7.690;2022-12-07T08:59:46;11.63;;;7.03;;
16127;SDS011;8168;49.036;7.690;2022-12-07T09:02:17;15.50;;;7.37;;
16127;SDS011;8168;49.036;7.690;2022-12-07T09:04:48;12.00;;;6.83;;
16127;SDS011;8168;49.036;7.690;2022-12-07T09:07:19;12.00;;;6.17;;
16127;SDS011;8168;49.036;7.690;2022-12-07T09:09:50;15.53;;;7.57;;
16127;SDS011;8168;49.036;7.690;2022-12-07T09:12:21;13.53;;;7.60;;
16127;SDS011;8168;49.036;7.690;2022-12-07T09:14:52;14.07;;;6.70;;
16127;SDS011;8168;49.036;7.690;2022-12-07T09:17:22;13.73;;;8.17;;
16127;SDS011;8168;49.036;7.690;2022-12-07T09:19:53;12.63;;;7.60;;
16127;SDS011;8168;49.036;7.690;2022-12-07T09:22:24;16.07;;;8.33;;
16127;SDS011;8168;49.036;7.690;2022-12-07T09:25:00;17.37;;;7.23;;
16127;SDS011;8168;49.036;7.690;2022-12-07T09:27:32;12.80;;;7.57;;
16127;SDS011;8168;49.036;7.690;2022-12-07T09:30:03;14.00;;;8.03;;
16127;SDS011;8168;49.036;7.690;2022-12-07T09:32:34;15.07;;;8.07;;
16127;SDS011;8168;49.036;7.690;2022-12-07T09:35:05;18.07;;;7.97;;
16127;SDS011;8168;49.036;7.690;2022-12-07T09:37:36;14.23;;;6.93;;
16127;SDS011;8168;49.036;7.690;2022-12-07T09:40:07;13.00;;;7.30;;
16127;SDS011;8168;49.036;7.690;2022-12-07T09:42:39;17.30;;;9.07;;
16127;SDS011;8168;49.036;7.690;2022-12-07T09:45:15;14.00;;;7.17;;
16127;SDS011;8168;49.036;7.690;2022-12-07T09:47:49;16.90;;;9.20;;
16127;SDS011;8168;49.036;7.690;2022-12-07T09:50:21;15.10;;;8.17;;
16127;SDS011;8168;49.036;7.690;2022-12-07T09:52:55;20.83;;;10.13;;
16127;SDS011;8168;49.036;7.690;2022-12-07T09:55:38;19.30;;;9.80;;
16127;SDS011;8168;49.036;7.690;2022-12-07T09:58:16;16.00;;;8.23;;
16127;SDS011;8168;49.036;7.690;2022-12-07T10:00:57;17.50;;;8.87;;
16127;SDS011;8168;49.036;7.690;2022-12-07T10:03:30;17.80;;;10.13;;
16127;SDS011;8168;49.036;7.690;2022-12-07T10:06:02;17.17;;;9.57;;
16127;SDS011;8168;49.036;7.690;2022-12-07T10:08:33;16.43;;;8.23;;
16127;SDS011;8168;49.036;7.690;2022-12-07T10:11:04;18.03;;;8.73;;
16127;SDS011;8168;49.036;7.690;2022-12-07T10:13:41;16.13;;;8.17;;
16127;SDS011;8168;49.036;7.690;2022-12-07T10:18:54;18.10;;;9.17;;
16127;SDS011;8168;49.036;7.690;2022-12-07T10:21:25;16.63;;;9.63;;
16127;SDS011;8168;49.036;7.690;2022-12-07T10:24:00;15.90;;;8.97;;
16127;SDS011;8168;49.036;7.690;2022-12-07T10:26:33;19.27;;;9.57;;
16127;SDS011;8168;49.036;7.690;2022-12-07T10:32:23;14.37;;;8.40;;
16127;SDS011;8168;49.036;7.690;2022-12-07T10:37:49;13.27;;;7.97;;
16127;SDS011;8168;49.036;7.690;2022-12-07T10:43:15;14.17;;;8.10;;
16127;SDS011;8168;49.036;7.690;2022-12-07T10:48:53;14.93;;;8.23;;
16127;SDS011;8168;49.036;7.690;2022-12-07T11:00:06;13.83;;;8.33;;
16127;SDS011;8168;49.036;7.690;2022-12-07T11:05:28;14.10;;;7.73;;
16127;SDS011;8168;49.036;7.690;2022-12-07T11:08:03;14.03;;;6.57;;
16127;SDS011;8168;49.036;7.690;2022-12-07T11:10:50;15.33;;;8.23;;
16127;SDS011;8168;49.036;7.690;2022-12-07T11:13:47;18.63;;;9.53;;
16127;SDS011;8168;49.036;7.690;2022-12-07T11:21:39;9.00;;;6.23;;
16127;SDS011;8168;49.036;7.690;2022-12-07T11:24:18;11.20;;;6.90;;
16127;SDS011;8168;49.036;7.690;2022-12-07T11:27:05;11.60;;;7.67;;
16127;SDS011;8168;49.036;7.690;2022-12-07T11:38:35;9.33;;;5.70;;
16127;SDS011;8168;49.036;7.690;2022-12-07T11:41:22;11.33;;;6.13;;
16127;SDS011;8168;49.036;7.690;2022-12-07T11:49:52;13.47;;;7.83;;
16127;SDS011;8168;49.036;7.690;2022-12-07T11:54:57;9.73;;;6.07;;
16127;SDS011;8168;49.036;7.690;2022-12-07T11:57:38;10.50;;;6.67;;
16127;SDS011;8168;49.036;7.690;2022-12-07T12:00:16;14.97;;;6.43;;
16127;SDS011;8168;49.036;7.690;2022-12-07T12:05:30;11.00;;;6.77;;
16127;SDS011;8168;49.036;7.690;2022-12-07T12:08:09;12.60;;;7.23;;
16127;SDS011;8168;49.036;7.690;2022-12-07T12:11:00;15.80;;;8.27;;
16127;SDS011;8168;49.036;7.690;2022-12-07T12:14:00;12.10;;;7.13;;
16127;SDS011;8168;49.036;7.690;2022-12-07T12:22:32;11.80;;;7.53;;
16127;SDS011;8168;49.036;7.690;2022-12-07T12:25:06;11.07;;;6.43;;
16127;SDS011;8168;49.036;7.690;2022-12-07T12:27:51;17.57;;;6.63;;
16127;SDS011;8168;49.036;7.690;2022-12-07T12:30:29;11.30;;;6.30;;
16127;SDS011;8168;49.036;7.690;2022-12-07T12:33:22;9.80;;;5.87;;
16127;SDS011;8168;49.036;7.690;2022-12-07T12:46:53;8.27;;;5.70;;
16127;SDS011;8168;49.036;7.690;2022-12-07T12:49:35;7.50;;;5.03;;
16127;SDS011;8168;49.036;7.690;2022-12-07T12:55:01;8.80;;;4.87;;
16127;SDS011;8168;49.036;7.690;2022-12-07T12:57:43;12.07;;;5.87;;
16127;SDS011;8168;49.036;7.690;2022-12-07T13:00:20;9.93;;;5.90;;
16127;SDS011;8168;49.036;7.690;2022-12-07T13:02:55;8.77;;;5.23;;
16127;SDS011;8168;49.036;7.690;2022-12-07T13:05:29;6.63;;;4.70;;
16127;SDS011;8168;49.036;7.690;2022-12-07T13:08:10;7.07;;;5.03;;
16127;SDS011;8168;49.036;7.690;2022-12-07T13:11:15;8.33;;;5.13;;
16127;SDS011;8168;49.036;7.690;2022-12-07T13:13:50;8.63;;;5.20;;
16127;SDS011;8168;49.036;7.690;2022-12-07T13:18:51;8.97;;;5.13;;
16127;SDS011;8168;49.036;7.690;2022-12-07T13:23:58;8.33;;;5.10;;
16127;SDS011;8168;49.036;7.690;2022-12-07T13:31:44;9.13;;;5.60;;
16127;SDS011;8168;49.036;7.690;2022-12-07T13:34:35;10.33;;;6.13;;
16127;SDS011;8168;49.036;7.690;2022-12-07T13:37:29;9.23;;;5.77;;
16127;SDS011;8168;49.036;7.690;2022-12-07T13:40:16;10.80;;;6.40;;
16127;SDS011;8168;49.036;7.690;2022-12-07T13:42:56;10.40;;;5.83;;
16127;SDS011;8168;49.036;7.690;2022-12-07T13:45:33;9.77;;;5.70;;
16127;SDS011;8168;49.036;7.690;2022-12-07T13:48:24;11.27;;;6.00;;
16127;SDS011;8168;49.036;7.690;2022-12-07T13:51:03;9.70;;;5.70;;
16127;SDS011;8168;49.036;7.690;2022-12-07T13:53:34;12.73;;;7.40;;
16127;SDS011;8168;49.036;7.690;2022-12-07T13:56:17;11.00;;;6.13;;
16127;SDS011;8168;49.036;7.690;2022-12-07T13:58:47;9.53;;;5.70;;
16127;SDS011;8168;49.036;7.690;2022-12-07T14:01:18;9.17;;;6.63;;
16127;SDS011;8168;49.036;7.690;2022-12-07T14:03:49;12.07;;;6.27;;
16127;SDS011;8168;49.036;7.690;2022-12-07T14:06:23;12.87;;;6.93;;
16127;SDS011;8168;49.036;7.690;2022-12-07T14:09:06;12.87;;;7.73;;
16127;SDS011;8168;49.036;7.690;2022-12-07T14:11:55;11.27;;;6.73;;
16127;SDS011;8168;49.036;7.690;2022-12-07T14:14:29;13.33;;;7.27;;
16127;SDS011;8168;49.036;7.690;2022-12-07T14:17:02;13.17;;;7.03;;
16127;SDS011;8168;49.036;7.690;2022-12-07T14:22:34;12.73;;;7.37;;
16127;SDS011;8168;49.036;7.690;2022-12-07T14:30:19;16.47;;;9.90;;
16127;SDS011;8168;49.036;7.690;2022-12-07T14:32:52;14.70;;;8.77;;
16127;SDS011;8168;49.036;7.690;2022-12-07T14:35:24;13.60;;;8.63;;
16127;SDS011;8168;49.036;7.690;2022-12-07T14:37:55;14.87;;;7.70;;
16127;SDS011;8168;49.036;7.690;2022-12-07T14:40:27;13.03;;;7.70;;
16127;SDS011;8168;49.036;7.690;2022-12-07T14:43:00;16.10;;;10.00;;
16127;SDS011;8168;49.036;7.690;2022-12-07T14:45:32;16.33;;;10.50;;
16127;SDS011;8168;49.036;7.690;2022-12-07T14:48:02;13.13;;;8.47;;
16127;SDS011;8168;49.036;7.690;2022-12-07T14:50:35;13.97;;;9.17;;
16127;SDS011;8168;49.036;7.690;2022-12-07T14:53:15;11.90;;;7.70;;
16127;SDS011;8168;49.036;7.690;2022-12-07T14:55:48;15.10;;;8.67;;
16127;SDS011;8168;49.036;7.690;2022-12-07T14:58:18;12.90;;;7.87;;
16127;SDS011;8168;49.036;7.690;2022-12-07T15:00:50;12.63;;;7.53;;
16127;SDS011;8168;49.036;7.690;2022-12-07T15:03:20;14.23;;;7.97;;
16127;SDS011;8168;49.036;7.690;2022-12-07T15:05:51;14.27;;;7.93;;
16127;SDS011;8168;49.036;7.690;2022-12-07T15:08:22;14.00;;;8.40;;
16127;SDS011;8168;49.036;7.690;2022-12-07T15:10:52;12.33;;;7.47;;
16127;SDS011;8168;49.036;7.690;2022-12-07T15:13:23;13.40;;;7.77;;
16127;SDS011;8168;49.036;7.690;2022-12-07T15:16:13;15.17;;;8.63;;
16127;SDS011;8168;49.036;7.690;2022-12-07T15:18:46;11.90;;;6.67;;
16127;SDS011;8168;49.036;7.690;2022-12-07T15:21:17;13.47;;;7.83;;
16127;SDS011;8168;49.036;7.690;2022-12-07T15:23:48;11.50;;;7.93;;
16127;SDS011;8168;49.036;7.690;2022-12-07T15:26:18;12.37;;;7.53;;
16127;SDS011;8168;49.036;7.690;2022-12-07T15:28:49;10.90;;;7.50;;
16127;SDS011;8168;49.036;7.690;2022-12-07T15:31:20;12.07;;;7.50;;
16127;SDS011;8168;49.036;7.690;2022-12-07T15:33:50;11.57;;;6.67;;
16127;SDS011;8168;49.036;7.690;2022-12-07T15:36:22;11.03;;;6.77;;
16127;SDS011;8168;49.036;7.690;2022-12-07T15:38:55;14.20;;;7.83;;
16127;SDS011;8168;49.036;7.690;2022-12-07T15:41:26;11.53;;;6.53;;
16127;SDS011;8168;49.036;7.690;2022-12-07T15:43:57;11.37;;;6.40;;
16127;SDS011;8168;49.036;7.690;2022-12-07T15:46:46;11.50;;;6.97;;
16127;SDS011;8168;49.036;7.690;2022-12-07T15:49:17;11.93;;;7.97;;
16127;SDS011;8168;49.036;7.690;2022-12-07T15:51:48;11.60;;;7.03;;
16127;SDS011;8168;49.036;7.690;2022-12-07T15:54:23;9.90;;;6.70;;
16127;SDS011;8168;49.036;7.690;2022-12-07T15:56:56;12.70;;;7.20;;
16127;SDS011;8168;49.036;7.690;2022-12-07T15:59:27;11.27;;;7.83;;
16127;SDS011;8168;49.036;7.690;2022-12-07T16:01:58;12.17;;;8.40;;
16127;SDS011;8168;49.036;7.690;2022-12-07T16:04:29;14.53;;;8.77;;
16127;SDS011;8168;49.036;7.690;2022-12-07T16:06:59;11.57;;;6.33;;
16127;SDS011;8168;49.036;7.690;2022-12-07T16:09:30;10.67;;;6.67;;
16127;SDS011;8168;49.036;7.690;2022-12-07T16:12:01;10.53;;;5.80;;
16127;SDS011;8168;49.036;7.690;2022-12-07T16:14:31;9.63;;;5.07;;
16127;SDS011;8168;49.036;7.690;2022-12-07T16:17:03;7.60;;;5.30;;
16127;SDS011;8168;49.036;7.690;2022-12-07T16:19:34;10.47;;;6.73;;
16127;SDS011;8168;49.036;7.690;2022-12-07T16:22:06;5.67;;;4.10;;
16127;SDS011;8168;49.036;7.690;2022-12-07T16:24:37;9.27;;;6.17;;
16127;SDS011;8168;49.036;7.690;2022-12-07T16:27:08;9.70;;;5.57;;
16127;SDS011;8168;49.036;7.690;2022-12-07T16:29:38;7.63;;;4.50;;
16127;SDS011;8168;49.036;7.690;2022-12-07T16:32:09;6.33;;;4.63;;
16127;SDS011;8168;49.036;7.690;2022-12-07T16:34:40;8.63;;;5.80;;
16127;SDS011;8168;49.036;7.690;2022-12-07T16:37:10;11.60;;;6.50;;
16127;SDS011;8168;49.036;7.690;2022-12-07T16:39:41;9.37;;;6.10;;
16127;SDS011;8168;49.036;7.690;2022-12-07T16:42:11;14.03;;;7.70;;
16127;SDS011;8168;49.036;7.690;2022-12-07T16:44:42;10.73;;;7.13;;
16127;SDS011;8168;49.036;7.690;2022-12-07T16:47:13;13.13;;;7.37;;
16127;SDS011;8168;49.036;7.690;2022-12-07T16:49:43;13.50;;;8.40;;
16127;SDS011;8168;49.036;7.690;2022-12-07T16:52:14;7.37;;;5.73;;
16127;SDS011;8168;49.036;7.690;2022-12-07T16:54:45;15.07;;;9.40;;
16127;SDS011;8168;49.036;7.690;2022-12-07T16:57:16;13.30;;;8.23;;
16127;SDS011;8168;49.036;7.690;2022-12-07T16:59:47;16.17;;;10.40;;
16127;SDS011;8168;49.036;7.690;2022-12-07T17:02:18;8.50;;;6.23;;
16127;SDS011;8168;49.036;7.690;2022-12-07T17:04:49;6.83;;;4.00;;
16127;SDS011;8168;49.036;7.690;2022-12-07T17:07:20;6.07;;;4.67;;
16127;SDS011;8168;49.036;7.690;2022-12-07T17:09:52;5.90;;;4.57;;
16127;SDS011;8168;49.036;7.690;2022-12-07T17:12:22;7.60;;;5.50;;
16127;SDS011;8168;49.036;7.690;2022-12-07T17:14:53;8.83;;;5.00;;
16127;SDS011;8168;49.036;7.690;2022-12-07T17:17:43;8.57;;;4.87;;
16127;SDS011;8168;49.036;7.690;2022-12-07T17:20:14;9.17;;;5.80;;
16127;SDS011;8168;49.036;7.690;2022-12-07T17:22:46;6.53;;;4.80;;
16127;SDS011;8168;49.036;7.690;2022-12-07T17:25:17;6.83;;;4.70;;
16127;SDS011;8168;49.036;7.690;2022-12-07T17:27:48;9.10;;;4.40;;
16127;SDS011;8168;49.036;7.690;2022-12-07T17:30:20;5.63;;;4.30;;
16127;SDS011;8168;49.036;7.690;2022-12-07T17:32:51;7.67;;;4.77;;
16127;SDS011;8168;49.036;7.690;2022-12-07T17:35:22;7.03;;;4.77;;